createdAt,value
2018-12-04T00:00:10.384Z,8.00
2018-12-04T00:01:10.342Z,6.00
2018-12-04T00:02:10.328Z,6.00
2018-12-04T00:03:10.265Z,7.30
2018-12-04T00:04:10.221Z,6.00
2018-12-04T00:05:10.180Z,4.60
2018-12-04T00:06:10.143Z,6.00
2018-12-04T00:07:10.112Z,6.00
2018-12-04T00:08:10.049Z,6.40
2018-12-04T00:09:10.006Z,5.90
2018-12-04T00:10:09.983Z,5.10
2018-12-04T00:11:09.929Z,4.50
2018-12-04T00:12:09.912Z,6.60
2018-12-04T00:13:09.835Z,6.70
2018-12-04T00:14:09.795Z,5.90
2018-12-04T00:15:09.762Z,5.20
2018-12-04T00:16:09.721Z,5.30
2018-12-04T00:17:09.696Z,4.80
2018-12-04T00:18:09.635Z,6.70
2018-12-04T00:19:09.609Z,5.80
2018-12-04T00:20:09.541Z,4.20
2018-12-04T00:21:09.502Z,5.80
2018-12-04T00:22:09.459Z,4.90
2018-12-04T00:23:09.452Z,5.80
2018-12-04T00:24:09.380Z,5.70
2018-12-04T00:25:09.339Z,5.00
2018-12-04T00:26:09.296Z,5.60
2018-12-04T00:27:09.248Z,4.60
2018-12-04T00:28:09.203Z,4.60
2018-12-04T00:29:09.194Z,6.50
2018-12-04T00:30:09.131Z,4.80
2018-12-04T00:31:09.080Z,5.90
2018-12-04T00:32:09.035Z,6.20
2018-12-04T00:33:09.015Z,6.10
2018-12-04T00:34:08.977Z,6.60
2018-12-04T00:35:08.979Z,7.80
2018-12-04T00:36:08.872Z,7.60
2018-12-04T00:37:08.831Z,10.30
2018-12-04T00:38:08.788Z,7.70
2018-12-04T00:39:08.762Z,7.20
2018-12-04T00:40:08.695Z,7.70
2018-12-04T00:41:08.650Z,7.70
2018-12-04T00:42:08.615Z,9.10
2018-12-04T00:43:08.588Z,8.60
2018-12-04T00:44:08.555Z,9.00
2018-12-04T00:45:08.512Z,9.40
2018-12-04T00:46:08.442Z,7.50
2018-12-04T00:47:08.409Z,9.30
2018-12-04T00:48:08.361Z,8.20
2018-12-04T00:49:08.323Z,9.70
2018-12-04T00:50:08.280Z,9.50
2018-12-04T00:51:08.253Z,9.40
2018-12-04T00:52:08.186Z,9.00
2018-12-04T00:53:08.147Z,9.70
2018-12-04T00:54:08.108Z,9.30
2018-12-04T00:55:08.094Z,10.70
2018-12-04T00:56:08.028Z,9.30
2018-12-04T00:57:07.982Z,7.80
2018-12-04T00:58:07.967Z,6.30
2018-12-04T00:59:07.892Z,8.00
2018-12-04T01:00:07.850Z,6.10
2018-12-04T01:01:07.812Z,7.30
2018-12-04T01:02:07.793Z,8.60
2018-12-04T01:03:07.725Z,8.40
2018-12-04T01:04:07.708Z,6.10
2018-12-04T01:05:07.639Z,7.80
2018-12-04T01:06:07.596Z,5.70
2018-12-04T01:07:07.561Z,8.80
2018-12-04T01:08:07.520Z,6.60
2018-12-04T01:09:07.476Z,6.10
2018-12-04T01:10:07.458Z,7.90
2018-12-04T01:11:07.386Z,8.60
2018-12-04T01:12:07.342Z,6.90
2018-12-04T01:13:07.298Z,9.30
2018-12-04T01:14:07.260Z,6.70
2018-12-04T01:15:07.241Z,6.60
2018-12-04T01:16:07.180Z,7.80
2018-12-04T01:17:07.131Z,6.10
2018-12-04T01:18:07.091Z,7.30
2018-12-04T01:19:07.052Z,6.40
2018-12-04T01:20:07.032Z,8.70
2018-12-04T01:21:06.967Z,6.10
2018-12-04T01:22:06.925Z,9.40
2018-12-04T01:23:06.874Z,8.30
2018-12-04T01:24:06.833Z,6.80
2018-12-04T01:25:06.812Z,7.70
2018-12-04T01:26:06.749Z,8.40
2018-12-04T01:27:06.741Z,8.40
2018-12-04T01:28:06.671Z,6.90
2018-12-04T01:29:06.629Z,9.20
2018-12-04T01:30:06.592Z,6.90
2018-12-04T01:31:06.539Z,7.40
2018-12-04T01:32:06.522Z,6.70
2018-12-04T01:33:06.484Z,8.20
2018-12-04T01:34:06.423Z,8.50
2018-12-04T01:35:06.372Z,6.80
2018-12-04T01:36:06.326Z,7.90
2018-12-04T01:37:06.306Z,7.70
2018-12-04T01:38:06.242Z,6.70
2018-12-04T01:39:06.206Z,7.90
2018-12-04T01:40:06.162Z,9.90
2018-12-04T01:41:06.147Z,7.70
2018-12-04T01:42:06.080Z,8.60
2018-12-04T01:43:06.030Z,7.40
2018-12-04T01:44:05.984Z,9.00
2018-12-04T01:45:05.946Z,8.00
2018-12-04T01:46:05.930Z,7.10
2018-12-04T01:47:05.869Z,8.00
2018-12-04T01:48:05.828Z,7.50
2018-12-04T01:49:05.775Z,8.40
2018-12-04T01:50:05.732Z,7.20
2018-12-04T01:51:05.719Z,8.10
2018-12-04T01:52:05.681Z,7.80
2018-12-04T01:53:05.612Z,9.90
2018-12-04T01:54:05.569Z,7.30
2018-12-04T01:55:05.523Z,9.90
2018-12-04T01:56:05.508Z,7.20
2018-12-04T01:57:05.436Z,7.00
2018-12-04T01:58:05.393Z,7.00
2018-12-04T01:59:05.359Z,8.70
2018-12-04T02:00:05.315Z,8.60
2018-12-04T02:01:05.274Z,7.70
2018-12-04T02:02:05.257Z,6.70
2018-12-04T02:03:05.184Z,8.40
2018-12-04T02:04:05.140Z,7.30
2018-12-04T02:05:05.105Z,8.90
2018-12-04T02:06:05.067Z,8.90
2018-12-04T02:07:05.042Z,6.40
2018-12-04T02:08:04.968Z,7.40
2018-12-04T02:09:04.926Z,8.10
2018-12-04T02:10:04.884Z,7.50
2018-12-04T02:11:04.851Z,8.30
2018-12-04T02:12:04.807Z,7.30
2018-12-04T02:13:04.787Z,7.10
2018-12-04T02:14:04.724Z,8.40
2018-12-04T02:15:04.679Z,9.50
2018-12-04T02:16:04.628Z,10.00
2018-12-04T02:17:04.617Z,6.10
2018-12-04T02:18:04.545Z,7.10
2018-12-04T02:19:04.511Z,9.40
2018-12-04T02:20:04.467Z,9.10
2018-12-04T02:21:05.292Z,7.60
2018-12-04T02:22:04.377Z,12.10
2018-12-04T02:23:04.363Z,6.90
2018-12-04T02:24:04.297Z,7.90
2018-12-04T02:25:04.257Z,9.40
2018-12-04T02:26:04.214Z,7.40
2018-12-04T02:27:04.189Z,7.70
2018-12-04T02:28:04.151Z,10.60
2018-12-04T02:29:04.080Z,11.50
2018-12-04T02:30:04.043Z,8.30
2018-12-04T02:31:03.999Z,8.70
2018-12-04T02:32:03.957Z,7.40
2018-12-04T02:33:03.963Z,8.20
2018-12-04T02:34:03.876Z,9.30
2018-12-04T02:35:03.847Z,9.20
2018-12-04T02:36:03.785Z,9.60
2018-12-04T02:37:03.746Z,9.70
2018-12-04T02:38:03.727Z,8.70
2018-12-04T02:39:03.656Z,6.70
2018-12-04T02:40:03.611Z,8.40
2018-12-04T02:41:03.591Z,9.20
2018-12-04T02:42:03.525Z,8.80
2018-12-04T02:43:03.492Z,7.10
2018-12-04T02:44:03.447Z,12.30
2018-12-04T02:45:03.404Z,10.30
2018-12-04T02:46:03.387Z,10.80
2018-12-04T02:47:03.316Z,8.10
2018-12-04T02:48:03.272Z,8.90
2018-12-04T02:49:03.252Z,8.60
2018-12-04T02:50:03.188Z,9.20
2018-12-04T02:51:03.152Z,6.60
2018-12-04T02:52:03.138Z,10.80
2018-12-04T02:53:03.060Z,10.50
2018-12-04T02:54:03.019Z,8.20
2018-12-04T02:55:02.981Z,8.30
2018-12-04T02:56:02.940Z,8.00
2018-12-04T02:57:02.897Z,9.50
2018-12-04T02:58:02.877Z,13.20
2018-12-04T02:59:02.830Z,8.40
2018-12-04T03:00:02.761Z,8.90
2018-12-04T03:01:02.719Z,9.10
2018-12-04T03:02:02.678Z,8.60
2018-12-04T03:03:02.643Z,9.10
2018-12-04T03:04:02.624Z,8.70
2018-12-04T03:05:02.557Z,8.60
2018-12-04T03:06:02.514Z,9.70
2018-12-04T03:07:02.468Z,12.10
2018-12-04T03:08:02.420Z,10.80
2018-12-04T03:09:02.384Z,10.80
2018-12-04T03:10:02.366Z,8.20
2018-12-04T03:11:02.297Z,9.20
2018-12-04T03:12:02.252Z,10.50
2018-12-04T03:13:02.209Z,11.30
2018-12-04T03:14:02.166Z,10.60
2018-12-04T03:15:02.160Z,9.40
2018-12-04T03:16:02.087Z,9.80
2018-12-04T03:17:02.047Z,10.00
2018-12-04T03:18:02.007Z,8.20
2018-12-04T03:19:01.955Z,11.00
2018-12-04T03:20:01.912Z,10.50
2018-12-04T03:21:01.893Z,9.00
2018-12-04T03:22:01.829Z,10.60
2018-12-04T03:23:01.793Z,8.40
2018-12-04T03:24:01.749Z,10.20
2018-12-04T03:25:01.725Z,13.50
2018-12-04T03:26:01.657Z,10.40
2018-12-04T03:27:01.667Z,9.30
2018-12-04T03:28:01.581Z,8.00
2018-12-04T03:29:01.536Z,7.90
2018-12-04T03:30:01.518Z,13.40
2018-12-04T03:31:01.446Z,9.20
2018-12-04T03:32:01.427Z,9.50
2018-12-04T03:33:01.361Z,10.50
2018-12-04T03:34:01.321Z,13.30
2018-12-04T03:35:01.306Z,11.50
2018-12-04T03:36:01.240Z,11.30
2018-12-04T03:37:01.196Z,8.10
2018-12-04T03:38:01.180Z,10.80
2018-12-04T03:39:01.120Z,9.40
2018-12-04T03:40:01.063Z,8.60
2018-12-04T03:41:01.028Z,10.20
2018-12-04T03:42:00.985Z,9.80
2018-12-04T03:43:00.935Z,9.50
2018-12-04T03:44:00.914Z,9.30
2018-12-04T03:45:00.849Z,10.60
2018-12-04T03:46:00.808Z,8.90
2018-12-04T03:47:00.772Z,10.30
2018-12-04T03:48:00.733Z,11.70
2018-12-04T03:49:00.708Z,13.60
2018-12-04T03:50:00.645Z,11.00
2018-12-04T03:51:00.621Z,13.70
2018-12-04T03:52:00.561Z,10.30
2018-12-04T03:53:00.510Z,11.00
2018-12-04T03:54:00.467Z,9.80
2018-12-04T03:55:00.433Z,10.60
2018-12-04T03:56:00.411Z,8.30
2018-12-04T03:57:00.373Z,9.10
2018-12-04T03:58:00.297Z,10.00
2018-12-04T03:59:00.263Z,9.60
2018-12-04T04:00:00.220Z,11.60
2018-12-04T04:01:00.175Z,11.10
2018-12-04T04:02:00.157Z,10.90
2018-12-04T04:03:00.089Z,8.90
2018-12-04T04:04:00.044Z,12.80
2018-12-04T04:05:00.001Z,9.90
2018-12-04T04:05:59.956Z,12.40
2018-12-04T04:06:59.944Z,12.20
2018-12-04T04:07:59.880Z,14.40
2018-12-04T04:08:59.840Z,10.60
2018-12-04T04:09:59.793Z,10.10
2018-12-04T04:10:59.745Z,13.10
2018-12-04T04:11:59.725Z,11.40
2018-12-04T04:12:59.673Z,10.10
2018-12-04T04:13:59.625Z,10.90
2018-12-04T04:14:59.577Z,7.60
2018-12-04T04:15:59.542Z,11.80
2018-12-04T04:16:59.491Z,10.60
2018-12-04T04:17:59.473Z,12.50
2018-12-04T04:18:59.414Z,11.30
2018-12-04T04:19:59.367Z,11.80
2018-12-04T04:20:59.332Z,12.00
2018-12-04T04:21:59.288Z,9.90
2018-12-04T04:22:59.259Z,11.00
2018-12-04T04:23:59.192Z,11.20
2018-12-04T04:24:59.150Z,12.50
2018-12-04T04:25:59.106Z,13.00
2018-12-04T04:26:59.071Z,10.60
2018-12-04T04:27:59.053Z,11.30
2018-12-04T04:28:58.979Z,11.20
2018-12-04T04:29:58.936Z,10.70
2018-12-04T04:30:58.901Z,12.50
2018-12-04T04:31:58.858Z,12.00
2018-12-04T04:32:58.839Z,10.90
2018-12-04T04:33:58.797Z,10.80
2018-12-04T04:34:58.727Z,12.10
2018-12-04T04:35:58.685Z,15.00
2018-12-04T04:36:58.640Z,11.00
2018-12-04T04:37:58.626Z,9.40
2018-12-04T04:38:58.562Z,10.00
2018-12-04T04:39:58.518Z,13.30
2018-12-04T04:40:58.476Z,11.90
2018-12-04T04:41:58.433Z,11.70
2018-12-04T04:42:58.417Z,12.30
2018-12-04T04:43:58.345Z,11.20
2018-12-04T04:44:58.317Z,10.70
2018-12-04T04:45:58.266Z,10.20
2018-12-04T04:46:58.215Z,13.90
2018-12-04T04:47:58.171Z,12.50
2018-12-04T04:48:58.153Z,9.30
2018-12-04T04:49:58.088Z,10.70
2018-12-04T04:50:58.052Z,9.60
2018-12-04T04:51:58.009Z,10.20
2018-12-04T04:52:57.966Z,13.00
2018-12-04T04:53:57.978Z,11.00
2018-12-04T04:54:57.875Z,12.50
2018-12-04T04:55:57.836Z,11.20
2018-12-04T04:56:57.790Z,11.20
2018-12-04T04:57:57.748Z,10.10
2018-12-04T04:58:57.739Z,11.40
2018-12-04T04:59:57.671Z,13.70
2018-12-04T05:00:57.625Z,10.90
2018-12-04T05:01:57.581Z,12.20
2018-12-04T05:02:57.540Z,12.60
2018-12-04T05:03:57.500Z,11.70
2018-12-04T05:04:57.479Z,11.40
2018-12-04T05:05:57.415Z,11.90
2018-12-04T05:06:57.364Z,11.00
2018-12-04T05:07:57.344Z,11.70
2018-12-04T05:08:57.282Z,14.30
2018-12-04T05:09:57.259Z,12.50
2018-12-04T05:10:57.202Z,13.30
2018-12-04T05:11:57.157Z,12.80
2018-12-04T05:12:57.138Z,14.30
2018-12-04T05:13:57.075Z,13.50
2018-12-04T05:14:57.050Z,12.20
2018-12-04T05:15:56.981Z,11.50
2018-12-04T05:16:56.945Z,15.40
2018-12-04T05:17:56.925Z,16.20
2018-12-04T05:18:56.855Z,13.20
2018-12-04T05:19:56.812Z,11.60
2018-12-04T05:20:56.766Z,14.00
2018-12-04T05:21:56.753Z,11.40
2018-12-04T05:22:56.689Z,13.20
2018-12-04T05:23:56.646Z,10.60
2018-12-04T05:24:56.602Z,11.70
2018-12-04T05:25:56.567Z,12.10
2018-12-04T05:26:56.509Z,11.90
2018-12-04T05:27:56.491Z,13.10
2018-12-04T05:28:56.426Z,13.40
2018-12-04T05:29:56.410Z,10.00
2018-12-04T05:30:56.348Z,11.80
2018-12-04T05:31:56.306Z,11.70
2018-12-04T05:32:56.254Z,15.30
2018-12-04T05:33:56.240Z,9.70
2018-12-04T05:34:56.182Z,11.60
2018-12-04T05:35:56.132Z,11.20
2018-12-04T05:36:56.098Z,10.70
2018-12-04T05:37:56.048Z,9.90
2018-12-04T05:38:55.998Z,11.00
2018-12-04T05:39:55.977Z,12.50
2018-12-04T05:40:55.915Z,12.20
2018-12-04T05:41:55.891Z,13.60
2018-12-04T05:42:55.835Z,9.50
2018-12-04T05:43:55.790Z,10.70
2018-12-04T05:44:55.770Z,9.30
2018-12-04T05:45:55.705Z,9.60
2018-12-04T05:46:55.658Z,12.20
2018-12-04T05:47:55.611Z,8.70
2018-12-04T05:48:55.580Z,11.30
2018-12-04T05:49:55.536Z,11.00
2018-12-04T05:50:55.511Z,12.40
2018-12-04T05:51:55.463Z,10.30
2018-12-04T05:52:55.399Z,11.50
2018-12-04T05:53:55.358Z,10.90
2018-12-04T05:54:55.322Z,10.80
2018-12-04T05:55:55.282Z,12.70
2018-12-04T05:56:55.259Z,8.70
2018-12-04T05:57:55.194Z,11.30
2018-12-04T05:58:55.144Z,11.00
2018-12-04T05:59:55.098Z,12.80
2018-12-04T06:00:55.057Z,10.70
2018-12-04T06:01:55.038Z,11.60
2018-12-04T06:02:54.982Z,9.60
2018-12-04T06:03:54.934Z,10.30
2018-12-04T06:04:54.887Z,8.90
2018-12-04T06:05:54.868Z,8.70
2018-12-04T06:06:54.832Z,9.10
2018-12-04T06:07:54.787Z,8.90
2018-12-04T06:08:54.723Z,9.20
2018-12-04T06:09:54.681Z,9.80
2018-12-04T06:10:54.632Z,11.50
2018-12-04T06:11:54.586Z,11.30
2018-12-04T06:12:54.567Z,8.70
2018-12-04T06:13:54.503Z,9.70
2018-12-04T06:14:54.465Z,10.80
2018-12-04T06:15:54.423Z,11.80
2018-12-04T06:16:54.406Z,9.50
2018-12-04T06:17:54.340Z,10.20
2018-12-04T06:18:54.291Z,9.40
2018-12-04T06:19:54.245Z,11.40
2018-12-04T06:20:54.210Z,10.30
2018-12-04T06:21:54.191Z,9.60
2018-12-04T06:22:54.116Z,8.90
2018-12-04T06:23:54.076Z,9.70
2018-12-04T06:24:54.030Z,11.10
2018-12-04T06:25:53.988Z,11.00
2018-12-04T06:26:53.982Z,11.10
2018-12-04T06:27:53.910Z,10.20
2018-12-04T06:28:53.868Z,10.50
2018-12-04T06:29:53.826Z,12.40
2018-12-04T06:30:53.775Z,10.50
2018-12-04T06:31:53.733Z,11.70
2018-12-04T06:32:53.718Z,10.00
2018-12-04T06:33:53.648Z,12.40
2018-12-04T06:34:53.613Z,10.70
2018-12-04T06:35:53.565Z,9.60
2018-12-04T06:36:53.518Z,11.50
2018-12-04T06:37:53.484Z,10.00
2018-12-04T06:38:53.466Z,9.50
2018-12-04T06:39:53.399Z,11.60
2018-12-04T06:40:53.355Z,12.80
2018-12-04T06:41:53.313Z,7.60
2018-12-04T06:42:53.263Z,9.70
2018-12-04T06:43:53.220Z,9.30
2018-12-04T06:44:53.199Z,9.10
2018-12-04T06:45:53.135Z,9.20
2018-12-04T06:46:53.099Z,10.80
2018-12-04T06:47:53.055Z,10.80
2018-12-04T06:48:53.042Z,9.70
2018-12-04T06:49:52.970Z,9.30
2018-12-04T06:50:52.920Z,12.00
2018-12-04T06:51:52.877Z,12.20
2018-12-04T06:52:52.842Z,11.50
2018-12-04T06:53:52.799Z,12.00
2018-12-04T06:54:52.778Z,9.50
2018-12-04T06:55:52.704Z,12.40
2018-12-04T06:56:52.664Z,12.00
2018-12-04T06:57:52.620Z,11.00
2018-12-04T06:58:52.585Z,9.80
2018-12-04T06:59:52.541Z,13.10
2018-12-04T07:00:52.522Z,9.20
2018-12-04T07:01:52.456Z,9.70
2018-12-04T07:02:52.407Z,8.50
2018-12-04T07:03:52.361Z,10.80
2018-12-04T07:04:52.321Z,14.10
2018-12-04T07:05:52.314Z,10.70
2018-12-04T07:06:52.243Z,12.00
2018-12-04T07:07:52.201Z,12.90
2018-12-04T07:08:52.148Z,10.10
2018-12-04T07:09:52.109Z,11.80
2018-12-04T07:10:52.076Z,10.10
2018-12-04T07:11:52.053Z,10.60
2018-12-04T07:12:51.989Z,9.40
2018-12-04T07:13:51.945Z,10.50
2018-12-04T07:14:51.895Z,13.30
2018-12-04T07:15:51.850Z,11.20
2018-12-04T07:16:51.837Z,9.50
2018-12-04T07:17:51.766Z,10.60
2018-12-04T07:18:51.732Z,10.50
2018-12-04T07:19:51.692Z,10.00
2018-12-04T07:20:51.646Z,10.60
2018-12-04T07:21:51.601Z,9.60
2018-12-04T07:22:51.577Z,13.10
2018-12-04T07:23:51.510Z,12.10
2018-12-04T07:24:52.532Z,11.30
2018-12-04T07:25:51.998Z,13.50
2018-12-04T07:26:51.384Z,10.10
2018-12-04T07:27:51.361Z,13.80
2018-12-04T07:28:51.325Z,10.50
2018-12-04T07:29:51.256Z,13.10
2018-12-04T07:30:51.216Z,10.70
2018-12-04T07:31:51.182Z,11.10
2018-12-04T07:32:51.137Z,13.10
2018-12-04T07:33:51.091Z,12.00
2018-12-04T07:34:51.062Z,13.10
2018-12-04T07:35:51.002Z,10.20
2018-12-04T07:36:50.955Z,11.60
2018-12-04T07:37:50.913Z,13.60
2018-12-04T07:38:50.878Z,10.70
2018-12-04T07:39:50.856Z,9.90
2018-12-04T07:40:50.790Z,11.50
2018-12-04T07:41:50.744Z,10.70
2018-12-04T07:42:50.733Z,10.90
2018-12-04T07:43:50.665Z,13.40
2018-12-04T07:44:50.647Z,12.90
2018-12-04T07:45:50.578Z,11.80
2018-12-04T07:46:50.530Z,12.60
2018-12-04T07:47:51.219Z,12.50
2018-12-04T07:48:50.474Z,11.10
2018-12-04T07:49:50.409Z,11.70
2018-12-04T07:50:50.357Z,10.60
2018-12-04T07:51:50.537Z,15.00
2018-12-04T07:52:50.399Z,12.20
2018-12-04T07:53:50.323Z,10.80
2018-12-04T07:54:50.579Z,10.90
2018-12-04T07:55:50.299Z,10.80
2018-12-04T07:56:50.114Z,13.00
2018-12-04T07:57:50.170Z,14.10
2018-12-04T07:58:50.051Z,13.60
2018-12-04T07:59:50.153Z,12.90
2018-12-04T08:00:50.314Z,10.50
2018-12-04T08:01:49.902Z,10.50
2018-12-04T08:02:50.191Z,11.00
2018-12-04T08:03:49.806Z,14.30
2018-12-04T08:04:50.115Z,12.90
2018-12-04T08:05:49.814Z,13.70
2018-12-04T08:06:49.722Z,14.20
2018-12-04T08:07:49.645Z,13.80
2018-12-04T08:08:49.606Z,9.90
2018-12-04T08:09:49.560Z,13.40
2018-12-04T08:10:49.602Z,13.40
2018-12-04T08:11:49.482Z,13.40
2018-12-04T08:12:49.469Z,12.50
2018-12-04T08:13:49.400Z,11.90
2018-12-04T08:14:49.431Z,10.50
2018-12-04T08:15:49.305Z,11.20
2018-12-04T08:16:49.279Z,12.00
2018-12-04T08:17:49.218Z,11.20
2018-12-04T08:18:49.183Z,11.00
2018-12-04T08:19:49.136Z,11.80
2018-12-04T08:20:49.113Z,10.90
2018-12-04T08:21:49.078Z,13.00
2018-12-04T08:22:49.002Z,11.60
2018-12-04T08:23:48.960Z,14.20
2018-12-04T08:24:48.916Z,11.50
2018-12-04T08:25:48.874Z,10.10
2018-12-04T08:26:48.837Z,9.70
2018-12-04T08:27:48.822Z,13.00
2018-12-04T08:28:48.747Z,10.20
2018-12-04T08:29:48.709Z,13.30
2018-12-04T08:30:48.673Z,13.00
2018-12-04T08:31:48.906Z,11.90
2018-12-04T08:32:48.761Z,11.50
2018-12-04T08:33:48.543Z,10.30
2018-12-04T08:34:48.495Z,10.30
2018-12-04T08:35:48.452Z,10.70
2018-12-04T08:36:48.413Z,11.40
2018-12-04T08:37:48.390Z,11.00
2018-12-04T08:38:48.332Z,12.80
2018-12-04T08:39:48.291Z,9.50
2018-12-04T08:40:48.284Z,10.20
2018-12-04T08:41:48.203Z,10.10
2018-12-04T08:42:48.184Z,11.50
2018-12-04T08:43:48.113Z,10.50
2018-12-04T08:44:48.078Z,7.90
2018-12-04T08:45:48.034Z,9.40
2018-12-04T08:46:47.985Z,10.00
2018-12-04T08:47:47.968Z,10.60
2018-12-04T08:48:47.902Z,9.30
2018-12-04T08:49:47.864Z,9.60
2018-12-04T08:50:47.828Z,7.30
2018-12-04T08:51:47.783Z,9.60
2018-12-04T08:52:47.765Z,8.00
2018-12-04T08:53:47.702Z,9.30
2018-12-04T08:54:47.658Z,8.90
2018-12-04T08:55:47.613Z,8.40
2018-12-04T08:56:47.571Z,8.70
2018-12-04T08:57:47.552Z,10.20
2018-12-04T08:58:47.497Z,12.10
2018-12-04T08:59:47.453Z,11.00
2018-12-04T09:00:47.406Z,9.70
2018-12-04T09:01:47.365Z,8.40
2018-12-04T09:02:47.357Z,8.60
2018-12-04T09:03:47.290Z,9.90
2018-12-04T09:04:47.248Z,9.80
2018-12-04T09:05:47.214Z,11.40
2018-12-04T09:06:47.190Z,10.10
2018-12-04T09:07:47.143Z,6.20
2018-12-04T09:08:47.152Z,10.20
2018-12-04T09:09:47.041Z,9.50
2018-12-04T09:10:47.004Z,8.40
2018-12-04T09:11:46.988Z,11.80
2018-12-04T09:12:46.923Z,8.80
2018-12-04T09:13:46.882Z,10.40
2018-12-04T09:14:46.835Z,11.30
2018-12-04T09:15:46.795Z,9.30
2018-12-04T09:16:46.856Z,10.60
2018-12-04T09:17:46.721Z,10.50
2018-12-04T09:18:46.714Z,7.60
2018-12-04T09:19:46.676Z,10.10
2018-12-04T09:20:46.673Z,9.00
2018-12-04T09:21:46.593Z,9.00
2018-12-04T09:22:46.526Z,10.10
2018-12-04T09:23:46.550Z,7.40
2018-12-04T09:24:46.451Z,7.30
2018-12-04T09:25:46.421Z,7.20
2018-12-04T09:26:46.376Z,7.90
2018-12-04T09:27:46.337Z,8.10
2018-12-04T09:28:46.307Z,11.10
2018-12-04T09:29:46.250Z,8.30
2018-12-04T09:30:46.199Z,8.00
2018-12-04T09:31:46.161Z,7.70
2018-12-04T09:32:46.112Z,8.10
2018-12-04T09:33:46.075Z,9.30
2018-12-04T09:34:46.068Z,10.00
2018-12-04T09:35:46.004Z,10.60
2018-12-04T09:36:45.962Z,9.90
2018-12-04T09:37:45.923Z,8.60
2018-12-04T09:38:45.905Z,9.30
2018-12-04T09:39:45.839Z,11.10
2018-12-04T09:40:45.824Z,9.20
2018-12-04T09:41:45.786Z,8.70
2018-12-04T09:42:45.749Z,9.60
2018-12-04T09:43:45.689Z,8.70
2018-12-04T09:44:45.650Z,11.00
2018-12-04T09:45:45.614Z,7.80
2018-12-04T09:46:45.586Z,11.40
2018-12-04T09:47:45.523Z,10.30
2018-12-04T09:48:45.491Z,8.60
2018-12-04T09:49:45.452Z,7.60
2018-12-04T09:50:45.406Z,7.60
2018-12-04T09:51:45.389Z,8.70
2018-12-04T09:52:45.357Z,8.10
2018-12-04T09:53:45.291Z,7.50
2018-12-04T09:54:45.280Z,8.40
2018-12-04T09:55:45.225Z,6.70
2018-12-04T09:56:45.179Z,8.30
2018-12-04T09:57:45.147Z,7.30
2018-12-04T09:58:45.100Z,7.60
2018-12-04T09:59:45.089Z,9.00
2018-12-04T10:00:45.022Z,9.10
2018-12-04T10:01:44.988Z,6.60
2018-12-04T10:02:44.955Z,8.10
2018-12-04T10:03:44.915Z,8.00
2018-12-04T10:04:44.899Z,10.30
2018-12-04T10:05:44.839Z,9.90
2018-12-04T10:06:44.829Z,9.30
2018-12-04T10:07:44.770Z,8.90
2018-12-04T10:08:44.733Z,9.10
2018-12-04T10:09:44.696Z,8.60
2018-12-04T10:10:44.674Z,8.80
2018-12-04T10:11:44.616Z,8.90
2018-12-04T10:12:44.605Z,8.10
2018-12-04T10:13:44.542Z,9.20
2018-12-04T10:14:44.518Z,8.40
2018-12-04T10:15:44.502Z,9.60
2018-12-04T10:16:44.439Z,8.10
2018-12-04T10:17:44.400Z,7.80
2018-12-04T10:18:47.684Z,8.30
2018-12-04T10:19:44.324Z,7.40
2018-12-04T10:20:44.317Z,7.50
2018-12-04T10:21:44.259Z,6.40
2018-12-04T10:22:44.218Z,10.60
2018-12-04T10:23:44.176Z,11.20
2018-12-04T10:24:44.143Z,7.00
2018-12-04T10:25:44.131Z,8.30
2018-12-04T10:26:44.083Z,9.20
2018-12-04T10:27:44.047Z,9.50
2018-12-04T10:28:44.030Z,7.30
2018-12-04T10:29:43.971Z,6.70
2018-12-04T10:30:43.955Z,7.30
2018-12-04T10:31:43.893Z,7.40
2018-12-04T10:32:43.861Z,9.50
2018-12-04T10:33:43.821Z,7.50
2018-12-04T10:34:43.795Z,9.50
2018-12-04T10:35:43.756Z,9.00
2018-12-04T10:36:43.742Z,7.20
2018-12-04T10:37:43.681Z,9.00
2018-12-04T10:38:43.656Z,8.70
2018-12-04T10:39:43.614Z,7.30
2018-12-04T10:40:43.605Z,10.10
2018-12-04T10:41:43.565Z,9.50
2018-12-04T10:42:43.503Z,10.20
2018-12-04T10:43:43.469Z,8.00
2018-12-04T10:44:43.436Z,8.10
2018-12-04T10:45:43.396Z,9.60
2018-12-04T10:46:43.388Z,8.00
2018-12-04T10:47:43.327Z,9.00
2018-12-04T10:48:43.292Z,8.20
2018-12-04T10:49:43.257Z,8.10
2018-12-04T10:50:43.212Z,9.80
2018-12-04T10:51:43.203Z,10.00
2018-12-04T10:52:43.148Z,7.90
2018-12-04T10:53:43.111Z,9.80
2018-12-04T10:54:43.067Z,9.70
2018-12-04T10:55:43.030Z,6.60
2018-12-04T10:56:42.996Z,8.20
2018-12-04T10:57:42.980Z,8.40
2018-12-04T10:58:42.929Z,9.80
2018-12-04T10:59:42.912Z,8.50
2018-12-04T11:00:42.851Z,10.00
2018-12-04T11:01:42.818Z,10.60
2018-12-04T11:02:42.776Z,10.50
2018-12-04T11:03:42.738Z,8.20
2018-12-04T11:04:42.717Z,9.60
2018-12-04T11:05:42.660Z,10.30
2018-12-04T11:06:42.630Z,10.60
2018-12-04T11:07:42.595Z,7.70
2018-12-04T11:08:42.546Z,8.90
2018-12-04T11:09:42.532Z,7.60
2018-12-04T11:10:42.478Z,8.80
2018-12-04T11:11:42.444Z,10.40
2018-12-04T11:12:42.401Z,9.50
2018-12-04T11:13:42.364Z,9.30
2018-12-04T11:14:42.345Z,10.20
2018-12-04T11:15:42.279Z,10.50
2018-12-04T11:16:42.241Z,9.40
2018-12-04T11:17:42.202Z,8.50
2018-12-04T11:18:42.173Z,9.00
2018-12-04T11:19:42.156Z,8.90
2018-12-04T11:20:42.095Z,8.90
2018-12-04T11:21:42.058Z,8.90
2018-12-04T11:22:42.007Z,9.70
2018-12-04T11:23:41.972Z,6.10
2018-12-04T11:24:41.989Z,9.20
2018-12-04T11:25:41.900Z,7.90
2018-12-04T11:26:41.858Z,9.60
2018-12-04T11:27:41.815Z,8.10
2018-12-04T11:28:41.783Z,8.10
2018-12-04T11:29:41.755Z,11.10
2018-12-04T11:30:41.731Z,9.80
2018-12-04T11:31:41.665Z,12.70
2018-12-04T11:32:41.630Z,8.90
2018-12-04T11:33:41.613Z,11.20
2018-12-04T11:34:41.542Z,8.10
2018-12-04T11:35:41.504Z,9.10
2018-12-04T11:36:41.465Z,8.50
2018-12-04T11:37:41.433Z,8.90
2018-12-04T11:38:41.422Z,9.60
2018-12-04T11:39:41.381Z,9.20
2018-12-04T11:40:41.310Z,8.00
2018-12-04T11:41:41.275Z,7.60
2018-12-04T11:42:41.243Z,9.20
2018-12-04T11:43:41.203Z,6.80
2018-12-04T11:44:41.189Z,9.50
2018-12-04T11:45:41.122Z,7.10
2018-12-04T11:46:41.087Z,7.50
2018-12-04T11:47:41.042Z,7.50
2018-12-04T11:48:41.002Z,5.90
2018-12-04T11:49:40.994Z,8.10
2018-12-04T11:50:40.935Z,7.40
2018-12-04T11:51:40.893Z,8.50
2018-12-04T11:52:40.856Z,7.50
2018-12-04T11:53:40.822Z,6.50
2018-12-04T11:54:40.773Z,8.40
2018-12-04T11:55:41.005Z,9.10
2018-12-04T11:56:40.708Z,8.10
2018-12-04T11:57:40.664Z,9.40
2018-12-04T11:58:40.622Z,9.20
2018-12-04T11:59:40.581Z,8.00
2018-12-04T12:00:40.570Z,8.40
2018-12-04T12:01:40.506Z,8.80
2018-12-04T12:02:40.472Z,9.60
2018-12-04T12:03:40.667Z,6.70
2018-12-04T12:04:40.398Z,9.50
2018-12-04T12:05:40.390Z,9.00
2018-12-04T12:06:40.317Z,6.40
2018-12-04T12:07:40.274Z,9.80
2018-12-04T12:08:40.237Z,7.20
2018-12-04T12:09:40.200Z,7.80
2018-12-04T12:10:40.166Z,6.70
2018-12-04T12:11:40.152Z,7.80
2018-12-04T12:12:40.082Z,7.20
2018-12-04T12:13:40.066Z,7.60
2018-12-04T12:14:40.014Z,8.70
2018-12-04T12:15:39.974Z,7.60
2018-12-04T12:16:39.934Z,9.30
2018-12-04T12:17:39.898Z,10.30
2018-12-04T12:18:39.879Z,8.60
2018-12-04T12:19:39.813Z,8.10
2018-12-04T12:20:39.774Z,8.60
2018-12-04T12:21:39.739Z,8.50
2018-12-04T12:22:39.710Z,10.50
2018-12-04T12:23:39.711Z,9.40
2018-12-04T12:24:39.627Z,9.00
2018-12-04T12:25:39.588Z,9.00
2018-12-04T12:26:39.541Z,6.90
2018-12-04T12:27:39.530Z,9.10
2018-12-04T12:28:39.471Z,6.70
2018-12-04T12:29:39.433Z,8.60
2018-12-04T12:30:39.384Z,10.00
2018-12-04T12:31:39.372Z,8.00
2018-12-04T12:32:39.306Z,11.50
2018-12-04T12:33:39.266Z,8.70
2018-12-04T12:34:48.375Z,7.60
2018-12-04T12:35:48.391Z,10.00
2018-12-04T12:36:39.168Z,8.70
2018-12-04T12:37:39.106Z,9.10
2018-12-04T12:38:39.074Z,9.20
2018-12-04T12:39:39.034Z,6.90
2018-12-04T12:40:38.987Z,8.50
2018-12-04T12:41:38.976Z,8.50
2018-12-04T12:42:38.950Z,9.70
2018-12-04T12:43:38.876Z,9.30
2018-12-04T12:44:38.836Z,7.50
2018-12-04T12:45:48.042Z,11.10
2018-12-04T12:46:38.768Z,12.70
2018-12-04T12:47:38.729Z,9.20
2018-12-04T12:48:38.680Z,7.00
2018-12-04T12:49:38.643Z,7.80
2018-12-04T12:50:38.604Z,9.50
2018-12-04T12:51:38.565Z,8.50
2018-12-04T12:52:38.559Z,9.10
2018-12-04T12:53:38.472Z,9.60
2018-12-04T12:54:38.469Z,8.60
2018-12-04T12:55:38.401Z,9.90
2018-12-04T12:56:38.381Z,10.30
2018-12-04T12:57:38.330Z,12.40
2018-12-04T12:58:38.296Z,11.30
2018-12-04T12:59:38.250Z,9.70
2018-12-04T13:00:38.201Z,9.00
2018-12-04T13:01:38.159Z,11.40
2018-12-04T13:02:38.119Z,11.60
2018-12-04T13:03:38.086Z,11.10
2018-12-04T13:04:38.065Z,8.80
2018-12-04T13:05:37.992Z,9.50
2018-12-04T13:06:37.952Z,10.00